Metar z połowy godziny Komunikat METAR ze strony awiacja.imgw.pl Metar G30 EPMM METAR EPMM 170900Z 12010KT 9999 FEW033 22/16 Q1019 RMK 221 064 2/2=